LFKT weather

Corte Airport
Corte, Corsica, France

Public forecast

Using degrees Celsius for public forecast. Weather courtesy of forecast.io.

METAR (pilot weather report)

Closest report is Bastia-Poretta Airport, 20.2 nm (37.4 km) NE. Retrieved 2019/07/17 11:30 UTC (6 minutes ago):

LFKB 171130Z AUTO 09006KT 020V140 CAVOK 28/16 Q1013 NOSIG

TAF (pilot weather forecast)

Closest forecast is Bastia-Poretta Airport, 20.2 nm (37.4 km) NE. Retrieved 2019/07/17 09:42 UTC (2 hours ago):

TAF LFKB 170800Z 1709/1809 12012KT CAVOK TX30/1712Z TN19/1803Z BECMG 1717/1720 24004KT